Time;durP1;ratioP1;P1;durP2;ratioP2;P2;SDS_P1;SDS_P2;PMS_P1;PMS_P2;Temp;Humidity;BMP_temperature;BMP_pressure;BME280_temperature;BME280_humidity;BME280_pressure;Samples;Min_cycle;Max_cycle;Signal;HPM_P1;HPM_P2
2024/02/14 00:04:29;;;;;;;27.88;26.27;;;6.30;99.90;;;;;;12430194;28;20085;-35
2024/02/14 00:10:31;;;;;;;26.20;24.50;;;6.30;99.90;;;;;;12455580;28;20068;-36
2024/02/14 00:16:32;;;;;;;26.58;24.95;;;6.50;99.90;;;;;;12451579;28;20100;-36
2024/02/14 00:22:34;;;;;;;29.63;27.83;;;6.60;99.90;;;;;;12456483;28;20132;-35
2024/02/14 00:28:36;;;;;;;29.83;28.13;;;6.60;99.90;;;;;;12456095;28;20058;-35
2024/02/14 00:34:38;;;;;;;29.23;27.52;;;6.70;99.90;;;;;;12459858;28;20179;-36
2024/02/14 00:40:40;;;;;;;31.55;29.75;;;6.70;99.90;;;;;;12445539;28;20049;-36
2024/02/14 00:46:43;;;;;;;32.08;30.38;;;6.80;99.90;;;;;;12446127;28;20058;-36
2024/02/14 00:52:45;;;;;;;30.42;28.75;;;6.80;99.90;;;;;;12456116;28;20815;-36
2024/02/14 00:58:47;;;;;;;30.23;28.52;;;6.90;99.90;;;;;;12457546;28;20050;-35
2024/02/14 01:04:49;;;;;;;30.23;28.38;;;6.90;99.90;;;;;;12455587;28;20057;-35
2024/02/14 01:10:51;;;;;;;30.77;29.08;;;7.00;99.90;;;;;;12464042;28;20057;-35
2024/02/14 01:16:54;;;;;;;31.30;29.42;;;7.00;99.90;;;;;;12440681;28;20148;-35
2024/02/14 01:22:55;;;;;;;31.77;29.98;;;7.10;99.90;;;;;;12468928;28;20061;-35
2024/02/14 01:29:00;;;;;;;27.48;25.83;;;7.10;99.90;;;;;;12449830;28;20131;-35
2024/02/14 01:35:03;;;;;;;28.27;26.77;;;7.10;99.90;;;;;;12466430;28;20195;-36
2024/02/14 01:41:05;;;;;;;31.38;29.40;;;7.10;99.90;;;;;;12467532;28;20445;-36
2024/02/14 01:47:07;;;;;;;31.30;29.48;;;7.10;99.90;;;;;;12463812;28;20091;-36
2024/02/14 01:53:09;;;;;;;31.73;29.90;;;7.20;99.90;;;;;;12442572;28;20125;-36
2024/02/14 01:59:12;;;;;;;30.48;28.73;;;7.10;99.90;;;;;;12446513;28;20152;-36
2024/02/14 02:05:15;;;;;;;28.67;26.88;;;7.00;99.90;;;;;;12460852;28;20136;-36
2024/02/14 02:11:18;;;;;;;28.98;27.27;;;6.90;99.90;;;;;;12434385;28;20870;-35
2024/02/14 02:17:21;;;;;;;29.35;27.65;;;6.80;99.90;;;;;;12455682;28;20053;-36
2024/02/14 02:23:23;;;;;;;39.00;36.90;;;6.70;99.90;;;;;;12466109;28;20502;-35
2024/02/14 02:29:24;;;;;;;57.20;54.22;;;6.60;99.90;;;;;;12449941;28;20049;-35
2024/02/14 02:35:26;;;;;;;85.72;81.25;;;6.60;99.90;;;;;;12438449;28;20068;-35
2024/02/14 02:41:28;;;;;;;97.13;91.80;;;6.50;99.90;;;;;;12441096;28;20046;-36
2024/02/14 02:47:30;;;;;;;93.63;88.25;;;6.50;99.90;;;;;;12464436;28;20073;-36
2024/02/14 02:53:32;;;;;;;97.10;91.90;;;6.60;99.90;;;;;;12477027;28;20084;-35
2024/02/14 02:59:35;;;;;;;94.78;89.70;;;6.60;99.90;;;;;;12452167;28;20053;-36
2024/02/14 03:05:38;;;;;;;90.70;85.80;;;6.60;99.90;;;;;;12471668;28;20421;-35
2024/02/14 03:11:40;;;;;;;93.20;88.10;;;6.60;99.90;;;;;;12459143;28;20045;-36
2024/02/14 03:17:43;;;;;;;90.30;85.40;;;6.60;99.90;;;;;;12456010;28;20049;-35
2024/02/14 03:23:45;;;;;;;91.00;86.10;;;6.70;99.90;;;;;;12483010;28;20061;-35
2024/02/14 03:29:47;;;;;;;99.70;94.10;;;6.70;99.90;;;;;;12487868;28;20049;-36
2024/02/14 03:35:49;;;;;;;104.45;98.45;;;6.70;99.90;;;;;;12472621;28;20196;-36
2024/02/14 03:41:52;;;;;;;97.35;91.95;;;6.60;99.90;;;;;;12467112;28;20494;-35
2024/02/14 03:47:54;;;;;;;100.93;95.32;;;6.60;99.90;;;;;;12451066;28;20110;-34
2024/02/14 03:53:56;;;;;;;100.72;94.97;;;6.60;99.90;;;;;;12465315;28;20085;-36
2024/02/14 04:00:03;;;;;;;99.53;93.95;;;6.50;99.90;;;;;;12439041;28;20494;-35
2024/02/14 04:06:06;;;;;;;98.60;93.13;;;6.50;99.90;;;;;;12452367;28;20046;-35
2024/02/14 04:12:10;;;;;;;104.55;98.43;;;6.50;99.90;;;;;;12457638;28;20421;-35
2024/02/14 04:18:14;;;;;;;107.00;101.03;;;6.60;99.90;;;;;;12462137;28;20053;-36
2024/02/14 04:24:16;;;;;;;106.65;100.45;;;6.60;99.90;;;;;;12457959;28;20080;-36
2024/02/14 04:30:18;;;;;;;106.72;100.72;;;6.60;99.90;;;;;;12474918;28;20506;-35
2024/02/14 04:36:20;;;;;;;104.13;98.22;;;6.60;99.90;;;;;;12442520;28;20053;-36
2024/02/14 04:42:22;;;;;;;114.75;108.10;;;6.70;99.90;;;;;;12458547;28;20326;-36
2024/02/14 04:48:25;;;;;;;116.60;110.05;;;6.70;99.90;;;;;;12468446;28;20576;-36
2024/02/14 04:54:28;;;;;;;119.68;112.53;;;6.70;99.90;;;;;;12476536;28;20131;-36
2024/02/14 05:00:30;;;;;;;112.22;105.78;;;6.80;99.90;;;;;;12488600;28;20046;-36
2024/02/14 05:06:31;;;;;;;109.68;103.53;;;6.80;99.90;;;;;;12470979;28;20557;-36
2024/02/14 05:12:33;;;;;;;116.88;110.18;;;6.90;99.90;;;;;;12476693;28;20054;-36
2024/02/14 05:18:36;;;;;;;117.85;110.63;;;6.90;99.90;;;;;;12460542;28;20141;-36
2024/02/14 05:24:38;;;;;;;114.32;107.43;;;7.00;99.90;;;;;;12483984;28;20049;-36
2024/02/14 05:30:43;;;;;;;109.45;103.10;;;7.00;99.90;;;;;;12461988;28;20053;-35
2024/02/14 05:36:45;;;;;;;116.78;109.78;;;7.10;99.90;;;;;;12474311;28;20505;-36
2024/02/14 05:42:48;;;;;;;109.68;103.28;;;7.20;99.90;;;;;;12464045;28;20045;-36
2024/02/14 05:48:52;;;;;;;111.22;103.93;;;7.20;99.90;;;;;;12457836;28;20053;-36
2024/02/14 05:54:54;;;;;;;116.30;109.45;;;7.30;99.90;;;;;;12462656;28;20096;-36
2024/02/14 06:00:56;;;;;;;119.68;112.40;;;7.30;99.90;;;;;;12462013;28;20514;-34
2024/02/14 06:06:57;;;;;;;119.78;112.78;;;7.40;99.90;;;;;;12462905;28;20551;-36
2024/02/14 06:13:00;;;;;;;115.97;109.20;;;7.40;99.90;;;;;;12469320;28;20049;-36
2024/02/14 06:19:05;;;;;;;118.07;111.22;;;7.40;99.90;;;;;;12455347;28;20088;-36
2024/02/14 06:25:08;;;;;;;120.35;113.25;;;7.50;99.90;;;;;;12465739;28;20088;-36
2024/02/14 06:31:09;;;;;;;120.18;112.93;;;7.50;99.90;;;;;;12451617;28;20041;-36
2024/02/14 06:37:11;;;;;;;121.00;113.80;;;7.60;99.90;;;;;;12451623;28;20188;-35
2024/02/14 06:43:13;;;;;;;129.13;121.53;;;7.60;99.90;;;;;;12431998;28;20140;-36
2024/02/14 06:49:18;;;;;;;128.73;121.13;;;7.70;99.90;;;;;;12473362;28;20140;-36
2024/02/14 06:55:20;;;;;;;139.85;131.63;;;7.70;99.90;;;;;;12458269;28;20061;-35
2024/02/14 07:01:22;;;;;;;137.57;129.43;;;7.70;99.90;;;;;;12455837;28;20058;-36
2024/02/14 07:07:25;;;;;;;135.60;127.40;;;7.70;99.90;;;;;;12473818;28;20041;-36
2024/02/14 07:13:27;;;;;;;137.43;129.02;;;7.80;99.90;;;;;;12477373;28;20108;-36
2024/02/14 07:19:29;;;;;;;135.20;127.22;;;7.80;99.90;;;;;;12471376;28;20167;-36
2024/02/14 07:25:31;;;;;;;136.02;127.80;;;7.90;99.90;;;;;;12457078;28;20069;-36
2024/02/14 07:31:34;;;;;;;138.55;130.13;;;7.90;99.90;;;;;;12456216;28;20567;-36
2024/02/14 07:37:36;;;;;;;133.30;125.15;;;8.00;99.90;;;;;;12442372;28;20470;-36
2024/02/14 07:43:38;;;;;;;138.02;129.52;;;8.00;99.90;;;;;;12471228;28;20068;-36
2024/02/14 07:49:41;;;;;;;135.25;126.40;;;8.10;99.90;;;;;;12465059;28;20114;-36
2024/02/14 07:55:43;;;;;;;144.95;135.95;;;8.20;99.90;;;;;;12454061;28;20563;-36
2024/02/14 08:01:44;;;;;;;171.38;160.60;;;8.20;99.90;;;;;;12453878;28;20077;-36
2024/02/14 08:07:46;;;;;;;171.73;160.45;;;8.30;99.90;;;;;;12471078;28;20102;-35
2024/02/14 08:13:48;;;;;;;176.70;165.50;;;8.30;99.90;;;;;;12458534;28;20132;-36
2024/02/14 08:19:50;;;;;;;165.00;154.38;;;8.40;99.90;;;;;;12467025;28;20045;-36
2024/02/14 08:25:52;;;;;;;162.82;152.27;;;8.50;99.90;;;;;;12470798;28;20045;-36
2024/02/14 08:31:54;;;;;;;171.02;160.07;;;8.50;99.90;;;;;;12478568;28;20144;-36
2024/02/14 08:37:56;;;;;;;154.40;144.63;;;8.60;99.90;;;;;;12449725;28;20056;-35
2024/02/14 08:44:00;;;;;;;153.23;143.68;;;8.60;99.90;;;;;;12446945;28;20061;-35
2024/02/14 08:50:03;;;;;;;159.52;149.43;;;8.60;99.90;;;;;;12463213;28;20521;-36
2024/02/14 08:56:05;;;;;;;165.43;154.63;;;8.70;99.90;;;;;;12443399;28;20184;-36
2024/02/14 09:02:07;;;;;;;165.93;155.27;;;8.70;99.90;;;;;;12474922;28;20058;-36
2024/02/14 09:08:09;;;;;;;170.98;159.98;;;8.60;99.90;;;;;;12476230;28;20045;-36
2024/02/14 09:14:11;;;;;;;173.15;162.15;;;8.70;99.90;;;;;;12471508;28;20430;-36
2024/02/14 09:20:14;;;;;;;175.40;164.40;;;8.70;99.90;;;;;;12483511;28;20049;-35
2024/02/14 09:26:17;;;;;;;172.47;161.67;;;8.70;99.90;;;;;;12463159;28;20474;-40
2024/02/14 09:32:19;;;;;;;164.02;153.63;;;8.70;99.90;;;;;;12458213;28;20091;-36
2024/02/14 09:38:21;;;;;;;168.55;158.15;;;8.80;99.90;;;;;;12440164;28;20061;-36
2024/02/14 09:44:23;;;;;;;161.80;152.00;;;8.90;99.90;;;;;;12471398;28;20053;-36
2024/02/14 09:50:30;;;;;;;163.20;153.38;;;8.90;99.90;;;;;;12429928;28;20049;-36
2024/02/14 09:56:32;;;;;;;175.40;164.90;;;9.00;99.90;;;;;;12457558;28;20406;-36
2024/02/14 10:02:35;;;;;;;174.40;163.68;;;9.00;99.90;;;;;;12469502;28;20053;-36
2024/02/14 10:08:39;;;;;;;185.75;174.57;;;9.10;99.90;;;;;;12452886;28;20061;-36
2024/02/14 10:14:53;;;;;;;197.30;185.27;;;9.20;99.90;;;;;;12452319;28;20057;-37
2024/02/14 10:20:56;;;;;;;197.88;185.85;;;9.20;99.90;;;;;;12460897;28;20411;-36
2024/02/14 10:27:01;;;;;;;212.70;200.30;;;9.30;99.90;;;;;;12446164;28;20100;-36
2024/02/14 10:33:04;;;;;;;209.75;197.27;;;9.40;99.90;;;;;;12470819;28;20065;-36
2024/02/14 10:39:22;;;;;;;214.95;202.02;;;9.50;99.90;;;;;;12453942;28;20164;-36
2024/02/14 10:45:27;;;;;;;213.60;200.50;;;9.50;99.90;;;;;;12473404;28;20053;-36
2024/02/14 10:51:32;;;;;;;214.95;201.95;;;9.60;99.90;;;;;;12475725;28;20045;-36
2024/02/14 10:57:35;;;;;;;217.13;204.23;;;9.60;99.90;;;;;;12492343;28;20477;-35
2024/02/14 11:03:37;;;;;;;218.68;205.23;;;9.60;99.90;;;;;;12486308;28;20099;-35
2024/02/14 11:09:40;;;;;;;218.70;205.25;;;9.70;99.90;;;;;;12477882;28;20478;-36
2024/02/14 11:15:46;;;;;;;223.48;209.70;;;9.60;99.90;;;;;;12473752;28;20066;-36
2024/02/14 11:21:50;;;;;;;235.10;220.65;;;9.80;99.90;;;;;;12474699;28;20183;-36
2024/02/14 11:27:52;;;;;;;238.87;224.20;;;9.80;99.90;;;;;;12465002;28;20126;-36
2024/02/14 11:33:56;;;;;;;240.30;225.93;;;9.90;99.90;;;;;;12460601;28;20085;-36
2024/02/14 11:39:58;;;;;;;244.40;229.55;;;9.90;99.90;;;;;;12461734;28;20110;-36
2024/02/14 11:46:00;;;;;;;234.00;219.65;;;10.00;99.90;;;;;;12447705;28;20060;-35
2024/02/14 11:52:04;;;;;;;252.93;237.60;;;9.90;99.90;;;;;;12469251;28;20060;-36
2024/02/14 11:58:08;;;;;;;249.17;233.87;;;10.00;99.90;;;;;;12465749;28;20505;-36
2024/02/14 12:04:10;;;;;;;254.77;239.38;;;10.00;99.90;;;;;;12476312;28;20140;-36
2024/02/14 12:10:17;;;;;;;259.42;243.73;;;10.00;99.90;;;;;;12469719;28;20486;-36
2024/02/14 12:16:21;;;;;;;258.10;242.50;;;10.10;99.90;;;;;;12464250;28;20061;-36
2024/02/14 12:22:24;;;;;;;262.58;246.77;;;10.10;99.90;;;;;;12453508;28;20520;-36
2024/02/14 12:28:26;;;;;;;275.02;258.20;;;10.20;99.90;;;;;;12466386;28;20057;-36
2024/02/14 12:34:28;;;;;;;270.00;254.20;;;10.20;99.90;;;;;;12461113;28;20531;-36
2024/02/14 12:40:32;;;;;;;276.33;259.65;;;10.10;99.90;;;;;;12460744;28;20060;-35
2024/02/14 12:46:37;;;;;;;271.33;255.13;;;10.20;99.90;;;;;;12468706;28;20045;-36
2024/02/14 12:52:39;;;;;;;285.10;268.10;;;10.30;99.90;;;;;;12476368;28;20801;-35
2024/02/14 12:58:42;;;;;;;276.30;260.02;;;10.20;99.90;;;;;;12481147;28;20485;-35
2024/02/14 13:04:44;;;;;;;271.83;255.98;;;10.20;99.90;;;;;;12471644;28;20053;-37
2024/02/14 13:10:46;;;;;;;273.83;257.52;;;10.10;99.90;;;;;;12470362;28;20052;-37
2024/02/14 13:16:48;;;;;;;271.25;255.50;;;10.20;99.90;;;;;;12480262;28;20065;-36
2024/02/14 13:22:58;;;;;;;262.98;247.75;;;10.20;99.90;;;;;;12668731;27;20124;-36
2024/02/14 13:29:00;;;;;;;259.70;244.52;;;10.30;99.90;;;;;;12637294;28;20043;-35
2024/02/14 13:35:02;;;;;;;253.43;238.70;;;10.30;99.90;;;;;;12615798;28;20044;-35
2024/02/14 13:41:04;;;;;;;273.08;257.20;;;10.30;99.90;;;;;;12595094;28;20432;-35
2024/02/14 13:47:06;;;;;;;266.40;251.02;;;10.30;99.90;;;;;;12580673;28;20148;-35
2024/02/14 13:53:08;;;;;;;260.15;244.90;;;10.30;99.90;;;;;;12599527;28;20048;-36
2024/02/14 13:59:10;;;;;;;260.83;245.27;;;10.30;99.90;;;;;;12571366;28;20051;-35
2024/02/14 14:05:13;;;;;;;272.70;256.33;;;10.30;99.90;;;;;;12569744;28;20052;-36
2024/02/14 14:11:19;;;;;;;267.30;251.10;;;10.40;99.90;;;;;;12566419;28;20149;-36
2024/02/14 14:17:21;;;;;;;257.63;242.27;;;10.30;99.90;;;;;;12537564;28;20114;-35
2024/02/14 14:23:23;;;;;;;259.95;244.48;;;10.30;99.90;;;;;;12526440;28;20045;-36
2024/02/14 14:29:25;;;;;;;263.92;248.35;;;10.30;99.90;;;;;;12505659;28;20053;-36
2024/02/14 14:35:27;;;;;;;275.35;259.02;;;10.40;99.90;;;;;;12504267;28;20045;-36
2024/02/14 14:41:29;;;;;;;279.58;262.98;;;10.40;99.90;;;;;;12484327;28;20195;-36
2024/02/14 14:47:31;;;;;;;276.80;260.30;;;10.40;99.90;;;;;;12449706;28;20053;-35
2024/02/14 14:53:34;;;;;;;272.73;256.40;;;10.40;99.90;;;;;;12495458;28;20498;-35
2024/02/14 14:59:37;;;;;;;275.90;259.77;;;10.50;99.90;;;;;;12478321;28;20403;-36
2024/02/14 15:05:39;;;;;;;286.30;269.60;;;10.50;99.90;;;;;;12487112;28;20046;-35
2024/02/14 15:11:41;;;;;;;283.13;266.63;;;10.50;99.90;;;;;;12474819;28;20054;-36
2024/02/14 15:17:43;;;;;;;296.83;279.65;;;10.40;99.90;;;;;;12484137;28;20053;-36
2024/02/14 15:23:45;;;;;;;296.98;279.85;;;10.50;99.90;;;;;;12462549;28;20563;-36
2024/02/14 15:36:11;;;;;;;291.63;274.92;;;10.30;99.90;;;;;;12485778;28;20038;-35
2024/02/14 15:42:13;;;;;;;288.67;272.48;;;10.30;99.90;;;;;;12496473;28;20087;-35
2024/02/14 15:48:21;;;;;;;274.23;258.88;;;10.30;99.90;;;;;;12488718;28;20049;-36
2024/02/14 15:54:23;;;;;;;289.45;273.45;;;10.40;99.90;;;;;;12471115;28;20053;-36
2024/02/14 16:00:29;;;;;;;286.10;270.38;;;10.40;99.90;;;;;;12464656;28;20088;-35
2024/02/14 16:06:34;;;;;;;255.05;241.25;;;10.40;99.90;;;;;;12481746;28;20045;-35
2024/02/14 16:12:36;;;;;;;261.33;247.07;;;10.40;99.90;;;;;;12443904;28;20077;-35
2024/02/14 16:18:38;;;;;;;260.88;246.73;;;10.30;99.90;;;;;;12463421;28;20077;-36
2024/02/14 16:24:42;;;;;;;265.58;251.27;;;10.40;99.90;;;;;;12465720;28;20067;-36
2024/02/14 16:30:45;;;;;;;256.27;242.50;;;10.30;99.90;;;;;;12465702;28;20426;-36
2024/02/14 16:36:47;;;;;;;256.13;242.27;;;10.40;99.90;;;;;;12467435;28;20053;-36
2024/02/14 16:42:49;;;;;;;262.67;248.75;;;10.40;99.90;;;;;;12460168;28;20525;-35
2024/02/14 16:48:52;;;;;;;256.42;242.77;;;10.40;99.90;;;;;;12466846;28;20038;-36
2024/02/14 16:54:54;;;;;;;265.20;251.07;;;10.40;99.90;;;;;;12468310;28;20050;-35
2024/02/14 17:00:56;;;;;;;258.67;244.73;;;10.30;99.90;;;;;;12473570;28;20107;-35
2024/02/14 17:06:58;;;;;;;247.88;234.50;;;10.40;99.90;;;;;;12476020;28;20056;-35
2024/02/14 17:13:00;;;;;;;253.52;239.50;;;10.40;99.90;;;;;;12479457;28;20114;-35
2024/02/14 17:19:02;;;;;;;255.23;241.30;;;10.40;99.90;;;;;;12478479;28;20049;-35
2024/02/14 17:25:05;;;;;;;261.15;246.68;;;10.40;99.90;;;;;;12462729;28;20090;-36
2024/02/14 17:31:07;;;;;;;251.80;238.05;;;10.30;99.90;;;;;;12449768;28;20042;-36
2024/02/14 17:37:09;;;;;;;263.88;249.30;;;10.30;99.90;;;;;;12457217;28;20060;-35
2024/02/14 17:43:11;;;;;;;270.10;255.80;;;10.30;99.90;;;;;;12478408;28;20072;-36
2024/02/14 17:49:13;;;;;;;277.52;262.80;;;10.30;99.90;;;;;;12468515;28;20117;-36
2024/02/14 17:55:15;;;;;;;286.08;271.08;;;10.30;99.90;;;;;;12476589;28;20048;-36
2024/02/14 18:01:18;;;;;;;283.83;268.58;;;10.20;99.90;;;;;;12486546;28;20084;-36
2024/02/14 18:07:20;;;;;;;298.20;282.40;;;10.20;99.90;;;;;;12483175;28;20045;-35
2024/02/14 18:13:22;;;;;;;282.65;267.90;;;10.20;99.90;;;;;;12490533;28;20106;-35
2024/02/14 18:19:25;;;;;;;305.05;289.08;;;10.20;99.90;;;;;;12460951;28;20409;-36
2024/02/14 18:25:27;;;;;;;313.23;296.70;;;10.20;99.90;;;;;;12505057;28;20298;-37
2024/02/14 18:31:29;;;;;;;305.30;289.38;;;10.30;99.90;;;;;;12484043;28;20049;-36
2024/02/14 18:37:31;;;;;;;317.88;301.33;;;10.20;99.90;;;;;;12458489;28;20491;-35
2024/02/14 18:43:33;;;;;;;295.08;279.50;;;10.30;99.90;;;;;;12469426;28;20053;-36
2024/02/14 18:49:36;;;;;;;310.35;293.90;;;10.30;99.90;;;;;;12440978;28;20057;-36
2024/02/14 18:55:38;;;;;;;306.42;290.23;;;10.30;99.90;;;;;;12454864;28;20053;-36
2024/02/14 19:01:40;;;;;;;294.98;279.38;;;10.30;99.90;;;;;;12491529;28;20053;-36
2024/02/14 19:07:41;;;;;;;315.50;298.75;;;10.30;99.90;;;;;;12495956;28;20041;-36
2024/02/14 19:13:44;;;;;;;305.73;288.85;;;10.30;99.90;;;;;;12475863;28;20880;-35
2024/02/14 19:19:46;;;;;;;318.85;301.70;;;10.40;99.90;;;;;;12466966;28;20515;-36
2024/02/14 19:25:53;;;;;;;311.05;294.48;;;10.40;99.90;;;;;;12460157;28;20060;-35
2024/02/14 19:31:55;;;;;;;312.23;295.25;;;10.50;99.90;;;;;;12478181;28;20557;-35
2024/02/14 19:37:56;;;;;;;327.80;310.15;;;10.50;99.90;;;;;;12472420;28;20041;-36
2024/02/14 19:43:58;;;;;;;371.13;350.80;;;10.50;99.90;;;;;;12483489;28;20519;-36
2024/02/14 19:50:07;;;;;;;349.02;330.08;;;10.50;99.90;;;;;;12470179;28;20088;-36
2024/02/14 19:56:09;;;;;;;330.25;312.52;;;10.40;99.90;;;;;;12480205;28;20486;-36
2024/02/14 20:02:11;;;;;;;330.08;312.48;;;10.50;99.90;;;;;;12468418;28;20089;-36
2024/02/14 20:08:13;;;;;;;331.08;313.05;;;10.40;99.90;;;;;;12455528;28;20049;-35
2024/02/14 20:14:15;;;;;;;337.80;319.58;;;10.40;99.90;;;;;;12418466;28;20054;-36
2024/02/14 20:20:18;;;;;;;339.70;321.63;;;10.50;99.90;;;;;;12462333;28;20485;-36
2024/02/14 20:26:20;;;;;;;371.58;351.67;;;10.50;99.90;;;;;;12459087;28;20054;-36
2024/02/14 20:32:21;;;;;;;355.45;336.38;;;10.50;99.90;;;;;;12477849;28;20049;-36
2024/02/14 20:38:23;;;;;;;347.00;328.38;;;10.50;99.90;;;;;;12467783;28;20516;-36
2024/02/14 20:44:25;;;;;;;354.88;335.98;;;10.50;99.90;;;;;;12490349;28;20056;-36
2024/02/14 20:50:29;;;;;;;355.48;336.42;;;10.50;99.90;;;;;;12457613;28;20061;-36
2024/02/14 20:56:31;;;;;;;370.47;350.20;;;10.60;99.90;;;;;;12473587;28;20066;-36
2024/02/14 21:02:33;;;;;;;370.38;350.10;;;10.60;99.90;;;;;;12469595;28;20057;-35
2024/02/14 21:08:35;;;;;;;351.20;331.83;;;10.60;99.90;;;;;;12471146;28;20053;-36
2024/02/14 21:14:37;;;;;;;359.30;339.02;;;10.60;99.90;;;;;;12470364;28;20049;-35
2024/02/14 21:20:39;;;;;;;371.85;351.20;;;10.70;99.90;;;;;;12403140;28;20149;-35
2024/02/14 21:26:43;;;;;;;371.15;350.33;;;10.80;99.90;;;;;;12473739;28;20049;-35
2024/02/14 21:32:45;;;;;;;368.70;347.88;;;10.80;99.90;;;;;;12467829;28;20061;-36
2024/02/14 21:38:47;;;;;;;370.73;349.70;;;10.80;99.90;;;;;;12450227;28;20091;-36
2024/02/14 21:44:49;;;;;;;387.67;365.30;;;10.80;99.90;;;;;;12479129;28;20417;-36
2024/02/14 21:50:52;;;;;;;374.30;352.65;;;10.90;99.90;;;;;;12479298;28;20061;-36
2024/02/14 21:56:54;;;;;;;375.05;353.15;;;10.90;99.90;;;;;;12467731;28;20041;-35
2024/02/14 22:02:56;;;;;;;374.88;353.38;;;10.90;99.90;;;;;;12466052;28;20090;-36
2024/02/14 22:08:59;;;;;;;387.10;364.90;;;10.90;99.90;;;;;;12450304;28;20052;-36
2024/02/14 22:15:01;;;;;;;399.10;375.70;;;11.00;99.90;;;;;;12456324;28;20053;-36
2024/02/14 22:21:04;;;;;;;425.92;401.02;;;11.00;99.90;;;;;;12476737;28;20045;-36
2024/02/14 22:27:06;;;;;;;432.35;406.45;;;11.00;99.90;;;;;;12485944;28;20524;-36
2024/02/14 22:33:09;;;;;;;393.35;369.92;;;11.00;99.90;;;;;;12458835;28;20049;-36
2024/02/14 22:39:12;;;;;;;389.57;366.47;;;11.00;99.90;;;;;;12470613;28;20144;-36
2024/02/14 22:45:14;;;;;;;406.40;382.40;;;11.00;99.90;;;;;;12467938;28;20050;-36
2024/02/14 22:51:16;;;;;;;403.75;379.58;;;11.00;99.90;;;;;;12487355;28;20057;-35
2024/02/14 22:57:18;;;;;;;404.05;380.15;;;11.10;99.90;;;;;;12465095;28;20514;-36
2024/02/14 23:03:20;;;;;;;383.60;360.77;;;11.10;99.90;;;;;;12483049;28;20175;-36
2024/02/14 23:09:23;;;;;;;397.45;373.73;;;11.10;99.90;;;;;;12486740;28;20053;-36
2024/02/14 23:15:25;;;;;;;412.50;387.75;;;11.10;99.90;;;;;;12468628;28;20050;-36
2024/02/14 23:21:28;;;;;;;418.67;393.73;;;11.10;99.90;;;;;;12477890;28;20399;-36
2024/02/14 23:27:31;;;;;;;425.23;400.13;;;11.20;99.90;;;;;;12464069;28;20042;-36
2024/02/14 23:33:33;;;;;;;417.85;392.95;;;11.10;99.90;;;;;;12470367;28;20053;-36
2024/02/14 23:39:35;;;;;;;405.52;380.90;;;11.20;99.90;;;;;;12475490;28;20054;-36
2024/02/14 23:45:37;;;;;;;395.98;372.00;;;11.10;99.90;;;;;;12443637;28;20076;-36
2024/02/14 23:51:39;;;;;;;396.88;373.25;;;11.10;99.90;;;;;;12479173;28;20053;-36
2024/02/14 23:57:44;;;;;;;385.33;362.52;;;11.10;99.90;;;;;;12448328;28;20050;-36
